Private Wetterstation Sandau
Wetterdaten: Sonntag, 06.05.2012
Datum Zeit Temp. A. Feuchte A. Luftdruck Regen Wind Richtung Richtung Taupunkt Windchill
06.05.2012 00:01 9,0 C 73 % 1009,8 hPa 0,0 l/m 1,8 km/h (1 Bft) O-NO 67 4,4 C 9,0 C
06.05.2012 00:06 8,9 C 74 % 1009,8 hPa 0,0 l/m 0,0 km/h (0 Bft) O-NO 67 4,5 C 8,9 C
06.05.2012 00:11 8,9 C 73 % 1009,8 hPa 0,0 l/m 3,2 km/h (1 Bft) O-NO 67 4,3 C 8,9 C
06.05.2012 00:16 8,7 C 73 % 1009,5 hPa 0,0 l/m 0,0 km/h (0 Bft) O-NO 67 4,1 C 8,7 C
06.05.2012 00:21 8,6 C 73 % 1009,6 hPa 0,0 l/m 2,9 km/h (1 Bft) O-SO 112 4,0 C 8,6 C
06.05.2012 00:26 8,6 C 74 % 1009,8 hPa 0,0 l/m 6,8 km/h (2 Bft) NO 45 4,2 C 7,6 C
06.05.2012 00:31 8,4 C 72 % 1009,8 hPa 0,0 l/m 2,5 km/h (1 Bft) O-NO 67 3,7 C 8,4 C
06.05.2012 00:36 8,3 C 72 % 1009,8 hPa 0,5 l/m 1,1 km/h (1 Bft) O-NO 67 3,6 C 8,3 C
06.05.2012 00:41 8,3 C 72 % 1009,7 hPa 0,0 l/m 3,6 km/h (1 Bft) O-NO 67 3,6 C 8,3 C
06.05.2012 00:46 8,2 C 72 % 1009,7 hPa 0,0 l/m 0,0 km/h (0 Bft) O 90 3,5 C 8,2 C
06.05.2012 00:51 8,1 C 72 % 1009,7 hPa 0,0 l/m 5,0 km/h (1 Bft) O-NO 67 3,4 C 7,6 C
06.05.2012 00:56 8,1 C 73 % 1009,7 hPa 0,0 l/m 0,0 km/h (0 Bft) O-NO 67 3,6 C 8,1 C
06.05.2012 01:01 8,1 C 74 % 1009,8 hPa 0,0 l/m 1,4 km/h (1 Bft) O-NO 67 3,8 C 8,1 C
06.05.2012 01:06 8,1 C 75 % 1009,8 hPa 0,0 l/m 0,0 km/h (0 Bft) O-NO 67 3,9 C 8,1 C
06.05.2012 01:11 7,9 C 75 % 1009,9 hPa 0,0 l/m 5,0 km/h (1 Bft) O-NO 67 3,7 C 7,4 C
06.05.2012 01:16 7,9 C 75 % 1009,9 hPa 0,0 l/m 1,8 km/h (1 Bft) O 90 3,7 C 7,9 C
06.05.2012 01:21 7,9 C 75 % 1009,9 hPa 0,0 l/m 7,2 km/h (2 Bft) O-NO 67 3,7 C 6,7 C
06.05.2012 01:26 7,8 C 75 % 1010,0 hPa 0,0 l/m 0,0 km/h (0 Bft) O-SO 112 3,7 C 7,8 C
06.05.2012 01:31 7,8 C 76 % 1010,0 hPa 0,0 l/m 0,0 km/h (0 Bft) O-NO 67 3,8 C 7,8 C
06.05.2012 01:36 7,8 C 76 % 1010,1 hPa 0,0 l/m 1,4 km/h (1 Bft) NO 45 3,8 C 7,8 C
06.05.2012 01:41 7,8 C 76 % 1010,3 hPa 0,0 l/m 2,5 km/h (1 Bft) O-NO 67 3,8 C 7,8 C
06.05.2012 01:46 7,8 C 77 % 1010,2 hPa 0,0 l/m 2,2 km/h (1 Bft) O-NO 67 4,0 C 7,8 C
06.05.2012 01:51 7,8 C 77 % 1010,3 hPa 0,0 l/m 0,0 km/h (0 Bft) O-NO 67 4,0 C 7,8 C
06.05.2012 01:56 7,8 C 77 % 1010,4 hPa 0,0 l/m 0,0 km/h (0 Bft) O-NO 67 4,0 C 7,8 C
06.05.2012 02:01 7,8 C 78 % 1010,4 hPa 0,0 l/m 0,0 km/h (0 Bft) O 90 4,2 C 7,8 C
06.05.2012 02:06 7,9 C 78 % 1010,3 hPa 0,0 l/m 1,8 km/h (1 Bft) O 90 4,3 C 7,9 C
06.05.2012 02:11 7,9 C 78 % 1010,3 hPa 0,0 l/m 0,0 km/h (0 Bft) O 90 4,3 C 7,9 C
06.05.2012 02:16 7,9 C 78 % 1010,3 hPa 0,0 l/m 2,5 km/h (1 Bft) NW 315 4,3 C 7,9 C
06.05.2012 02:21 7,9 C 78 % 1010,4 hPa 0,0 l/m 3,2 km/h (1 Bft) N-NW 337 4,3 C 7,9 C
06.05.2012 02:26 7,6 C 78 % 1010,4 hPa 0,0 l/m 3,2 km/h (1 Bft) N-NO 22 4,0 C 7,6 C
06.05.2012 02:31 7,5 C 79 % 1010,3 hPa 0,0 l/m 2,5 km/h (1 Bft) N 360 4,1 C 7,5 C
06.05.2012 02:36 7,6 C 79 % 1010,4 hPa 0,0 l/m 1,8 km/h (1 Bft) N-NO 22 4,2 C 7,6 C
06.05.2012 02:41 7,5 C 79 % 1010,3 hPa 0,0 l/m 0,0 km/h (0 Bft) N 360 4,1 C 7,5 C
06.05.2012 02:46 7,4 C 79 % 1010,4 hPa 0,0 l/m 3,6 km/h (1 Bft) NO 45 4,0 C 7,4 C
06.05.2012 02:51 7,3 C 80 % 1010,4 hPa 0,0 l/m 3,6 km/h (1 Bft) N-NO 22 4,1 C 7,3 C
06.05.2012 02:56 7,3 C 80 % 1010,4 hPa 0,0 l/m 1,8 km/h (1 Bft) N-NO 22 4,1 C 7,3 C
06.05.2012 03:01 7,3 C 80 % 1010,3 hPa 0,0 l/m 0,0 km/h (0 Bft) NO 45 4,1 C 7,3 C
06.05.2012 03:06 7,2 C 81 % 1010,3 hPa 0,0 l/m 1,4 km/h (1 Bft) N 360 4,2 C 7,2 C
06.05.2012 03:11 7,2 C 81 % 1010,3 hPa 0,0 l/m 1,4 km/h (1 Bft) N-NO 22 4,2 C 7,2 C
06.05.2012 03:16 7,1 C 81 % 1010,3 hPa 0,0 l/m 0,0 km/h (0 Bft) N-NO 22 4,1 C 7,1 C
06.05.2012 03:21 7,1 C 81 % 1010,3 hPa 0,0 l/m 2,9 km/h (1 Bft) N-NO 22 4,1 C 7,1 C
06.05.2012 03:26 7,0 C 81 % 1010,3 hPa 0,0 l/m 2,9 km/h (1 Bft) NO 45 4,0 C 7,0 C
06.05.2012 03:31 6,9 C 82 % 1010,3 hPa 0,5 l/m 2,2 km/h (1 Bft) N-NO 22 4,0 C 6,9 C
06.05.2012 03:36 6,9 C 82 % 1010,3 hPa 0,0 l/m 0,0 km/h (0 Bft) NO 45 4,0 C 6,9 C
06.05.2012 03:41 7,0 C 82 % 1010,4 hPa 0,0 l/m 2,5 km/h (1 Bft) NO 45 4,1 C 7,0 C
06.05.2012 03:46 7,0 C 82 % 1010,3 hPa 0,0 l/m 1,8 km/h (1 Bft) O 90 4,1 C 7,0 C
06.05.2012 03:51 7,0 C 82 % 1010,5 hPa 0,0 l/m 0,0 km/h (0 Bft) O-NO 67 4,1 C 7,0 C
06.05.2012 03:56 7,0 C 82 % 1010,4 hPa 0,0 l/m 2,2 km/h (1 Bft) O-NO 67 4,1 C 7,0 C
06.05.2012 04:01 7,1 C 82 % 1010,4 hPa 0,0 l/m 2,2 km/h (1 Bft) NO 45 4,2 C 7,1 C
06.05.2012 04:06 7,1 C 82 % 1010,4 hPa 0,0 l/m 3,2 km/h (1 Bft) NO 45 4,2 C 7,1 C
06.05.2012 04:11 7,0 C 82 % 1010,5 hPa 0,0 l/m 2,2 km/h (1 Bft) O-NO 67 4,1 C 7,0 C
06.05.2012 04:16 7,0 C 82 % 1010,4 hPa 0,0 l/m 0,0 km/h (0 Bft) NO 45 4,1 C 7,0 C
06.05.2012 04:21 7,1 C 83 % 1010,4 hPa 0,0 l/m 0,0 km/h (0 Bft) O-NO 67 4,4 C 7,1 C
06.05.2012 04:26 7,1 C 83 % 1010,5 hPa 0,0 l/m 2,2 km/h (1 Bft) N-NO 22 4,4 C 7,1 C
06.05.2012 04:31 7,1 C 83 % 1010,6 hPa 0,0 l/m 0,0 km/h (0 Bft) O-NO 67 4,4 C 7,1 C
06.05.2012 04:36 7,1 C 83 % 1010,5 hPa 0,0 l/m 1,4 km/h (1 Bft) O-NO 67 4,4 C 7,1 C
06.05.2012 04:41 7,2 C 83 % 1010,5 hPa 0,0 l/m 1,4 km/h (1 Bft) O-NO 67 4,5 C 7,2 C
06.05.2012 04:46 7,1 C 82 % 1010,3 hPa 0,0 l/m 2,2 km/h (1 Bft) O-NO 67 4,2 C 7,1 C
06.05.2012 04:51 7,0 C 82 % 1010,3 hPa 0,0 l/m 5,0 km/h (1 Bft) O-NO 67 4,1 C 6,4 C
06.05.2012 04:56 6,9 C 82 % 1010,3 hPa 0,0 l/m 9,4 km/h (2 Bft) O-NO 67 4,0 C 5,1 C
06.05.2012 05:01 6,8 C 82 % 1010,3 hPa 0,0 l/m 5,8 km/h (2 Bft) O-NO 67 3,9 C 5,9 C
06.05.2012 05:06 6,8 C 82 % 1010,4 hPa 0,0 l/m 4,3 km/h (1 Bft) O 90 3,9 C 6,8 C
06.05.2012 05:11 6,8 C 82 % 1010,4 hPa 0,0 l/m 4,7 km/h (1 Bft) O-NO 67 3,9 C 6,2 C
06.05.2012 05:16 6,7 C 82 % 1010,5 hPa 0,0 l/m 3,6 km/h (1 Bft) O-NO 67 3,8 C 6,7 C
06.05.2012 05:21 6,7 C 82 % 1010,6 hPa 0,0 l/m 1,8 km/h (1 Bft) NO 45 3,8 C 6,7 C
06.05.2012 05:26 6,7 C 82 % 1010,6 hPa 0,0 l/m 5,0 km/h (1 Bft) O-SO 112 3,8 C 6,0 C
06.05.2012 05:31 6,7 C 82 % 1010,7 hPa 0,0 l/m 0,0 km/h (0 Bft) O-NO 67 3,8 C 6,7 C
06.05.2012 05:36 6,8 C 82 % 1010,6 hPa 0,0 l/m 2,9 km/h (1 Bft) O-NO 67 3,9 C 6,8 C
06.05.2012 05:41 6,8 C 82 % 1010,7 hPa 0,0 l/m 3,2 km/h (1 Bft) O-NO 67 3,9 C 6,8 C
06.05.2012 05:46 6,7 C 82 % 1010,7 hPa 0,0 l/m 0,0 km/h (0 Bft) O-NO 67 3,8 C 6,7 C
06.05.2012 05:51 6,8 C 82 % 1010,9 hPa 0,0 l/m 0,0 km/h (0 Bft) O-NO 67 3,9 C 6,8 C
06.05.2012 05:56 6,8 C 82 % 1010,8 hPa 0,0 l/m 1,1 km/h (1 Bft) O-NO 67 3,9 C 6,8 C
06.05.2012 06:01 6,9 C 82 % 1011,0 hPa 0,0 l/m 0,0 km/h (0 Bft) O-NO 67 4,0 C 6,9 C
06.05.2012 06:06 6,9 C 82 % 1011,0 hPa 0,0 l/m 0,0 km/h (0 Bft) O-NO 67 4,0 C 6,9 C
06.05.2012 06:11 6,9 C 82 % 1011,0 hPa 0,0 l/m 1,1 km/h (1 Bft) O-NO 67 4,0 C 6,9 C
06.05.2012 06:16 6,9 C 82 % 1011,0 hPa 0,0 l/m 1,4 km/h (1 Bft) O-NO 67 4,0 C 6,9 C
06.05.2012 06:21 6,9 C 82 % 1011,1 hPa 0,0 l/m 1,1 km/h (1 Bft) O-NO 67 4,0 C 6,9 C
06.05.2012 06:26 6,9 C 82 % 1011,3 hPa 0,0 l/m 0,0 km/h (0 Bft) O-NO 67 4,0 C 6,9 C
06.05.2012 06:31 6,9 C 82 % 1011,3 hPa 0,0 l/m 1,1 km/h (1 Bft) O-NO 67 4,0 C 6,9 C
06.05.2012 06:36 6,9 C 82 % 1011,3 hPa 0,0 l/m 0,0 km/h (0 Bft) O-NO 67 4,0 C 6,9 C
06.05.2012 06:41 6,9 C 82 % 1011,4 hPa 0,0 l/m 0,0 km/h (0 Bft) O-NO 67 4,0 C 6,9 C
06.05.2012 06:46 6,9 C 82 % 1011,4 hPa 0,0 l/m 0,0 km/h (0 Bft) O-NO 67 4,0 C 6,9 C
06.05.2012 06:51 6,9 C 81 % 1011,5 hPa 0,0 l/m 0,0 km/h (0 Bft) O-NO 67 3,9 C 6,9 C
06.05.2012 06:56 7,0 C 81 % 1011,6 hPa 0,0 l/m 2,5 km/h (1 Bft) O-NO 67 4,0 C 7,0 C
06.05.2012 07:01 7,0 C 81 % 1011,6 hPa 0,0 l/m 1,4 km/h (1 Bft) O 90 4,0 C 7,0 C
06.05.2012 07:06 7,2 C 81 % 1011,7 hPa 0,0 l/m 4,3 km/h (1 Bft) O 90 4,2 C 7,2 C
06.05.2012 07:11 7,3 C 80 % 1011,7 hPa 0,0 l/m 2,2 km/h (1 Bft) O 90 4,1 C 7,3 C
06.05.2012 07:16 7,4 C 79 % 1011,6 hPa 0,0 l/m 0,0 km/h (0 Bft) O-NO 67 4,0 C 7,4 C
06.05.2012 07:21 7,9 C 79 % 1011,6 hPa 0,0 l/m 0,0 km/h (0 Bft) O-SO 112 4,5 C 7,9 C
06.05.2012 07:26 8,1 C 78 % 1011,6 hPa 0,0 l/m 4,3 km/h (1 Bft) O 90 4,5 C 8,1 C
06.05.2012 07:31 8,4 C 76 % 1011,7 hPa 0,0 l/m 4,0 km/h (1 Bft) O-SO 112 4,4 C 8,4 C
06.05.2012 07:36 8,4 C 76 % 1011,7 hPa 0,0 l/m 3,2 km/h (1 Bft) SO 135 4,4 C 8,4 C
06.05.2012 07:41 8,6 C 75 % 1011,8 hPa 0,0 l/m 3,6 km/h (1 Bft) O-SO 112 4,4 C 8,6 C
06.05.2012 07:46 8,6 C 73 % 1011,8 hPa 0,0 l/m 9,0 km/h (2 Bft) O 90 4,0 C 7,2 C
06.05.2012 07:51 8,6 C 73 % 1011,9 hPa 0,0 l/m 2,2 km/h (1 Bft) O 90 4,0 C 8,6 C
06.05.2012 07:56 8,8 C 73 % 1011,9 hPa 0,0 l/m 1,8 km/h (1 Bft) O 90 4,2 C 8,8 C
06.05.2012 08:01 8,9 C 73 % 1012,0 hPa 0,0 l/m 2,2 km/h (1 Bft) NO 45 4,3 C 8,9 C
06.05.2012 08:06 9,0 C 71 % 1012,0 hPa 0,0 l/m 0,0 km/h (0 Bft) O-NO 67 4,0 C 9,0 C
06.05.2012 08:11 9,1 C 71 % 1012,0 hPa 0,0 l/m 0,0 km/h (0 Bft) O-SO 112 4,1 C 9,1 C
06.05.2012 08:16 9,2 C 70 % 1012,0 hPa 0,0 l/m 1,1 km/h (1 Bft) O-NO 67 4,0 C 9,2 C
06.05.2012 08:21 9,1 C 70 % 1012,1 hPa 0,0 l/m 0,0 km/h (0 Bft) O 90 3,9 C 9,1 C
06.05.2012 08:26 9,0 C 70 % 1011,9 hPa 0,0 l/m 2,2 km/h (1 Bft) O 90 3,8 C 9,0 C
06.05.2012 08:31 8,9 C 70 % 1012,0 hPa 0,0 l/m 1,4 km/h (1 Bft) O-NO 67 3,7 C 8,9 C
06.05.2012 08:36 8,9 C 70 % 1011,9 hPa 0,0 l/m 0,0 km/h (0 Bft) O-NO 67 3,7 C 8,9 C
06.05.2012 08:41 9,1 C 70 % 1012,0 hPa 0,0 l/m 3,2 km/h (1 Bft) O-NO 67 3,9 C 9,1 C
06.05.2012 08:46 9,2 C 69 % 1011,9 hPa 0,0 l/m 0,0 km/h (0 Bft) O-NO 67 3,8 C 9,2 C
06.05.2012 08:51 9,3 C 69 % 1012,0 hPa 0,0 l/m 4,0 km/h (1 Bft) SO 135 3,9 C 9,3 C
06.05.2012 08:56 9,5 C 70 % 1012,1 hPa 0,0 l/m 3,2 km/h (1 Bft) S-SO 157 4,3 C 9,5 C
06.05.2012 09:01 9,9 C 71 % 1012,0 hPa 0,0 l/m 3,2 km/h (1 Bft) S-SW 202 4,9 C 9,9 C
06.05.2012 09:06 10,3 C 69 % 1012,1 hPa 0,0 l/m 5,0 km/h (1 Bft) O 90 4,9 C 10,3 C
06.05.2012 09:11 10,4 C 68 % 1012,1 hPa 0,0 l/m 1,1 km/h (1 Bft) S-SO 157 4,8 C 10,4 C
06.05.2012 09:16 10,4 C 68 % 1012,1 hPa 0,0 l/m 2,5 km/h (1 Bft) S-SO 157 4,8 C 10,4 C
06.05.2012 09:21 10,4 C 68 % 1012,1 hPa 0,0 l/m 0,0 km/h (0 Bft) S-SW 202 4,8 C 10,4 C
06.05.2012 09:26 10,5 C 66 % 1012,1 hPa 0,0 l/m 4,3 km/h (1 Bft) O 90 4,4 C 10,5 C
06.05.2012 09:31 10,6 C 67 % 1012,2 hPa 0,0 l/m 5,8 km/h (2 Bft) O 90 4,7 C 10,6 C
06.05.2012 09:36 10,8 C 66 % 1012,3 hPa 0,0 l/m 5,0 km/h (1 Bft) O-NO 67 4,7 C 10,8 C
06.05.2012 09:41 10,7 C 66 % 1012,2 hPa 0,0 l/m 2,2 km/h (1 Bft) SO 135 4,6 C 10,7 C
06.05.2012 09:46 10,4 C 65 % 1012,3 hPa 0,0 l/m 4,3 km/h (1 Bft) O-SO 112 4,1 C 10,4 C
06.05.2012 09:51 10,2 C 65 % 1012,5 hPa 0,0 l/m 3,2 km/h (1 Bft) O 90 3,9 C 10,2 C
06.05.2012 09:56 10,0 C 65 % 1012,5 hPa 0,0 l/m 1,4 km/h (1 Bft) O-SO 112 3,7 C 10,0 C
06.05.2012 10:01 10,2 C 65 % 1012,6 hPa 0,0 l/m 6,5 km/h (2 Bft) O 90 3,9 C 10,2 C
06.05.2012 10:06 10,5 C 65 % 1012,6 hPa 0,0 l/m 0,0 km/h (0 Bft) O 90 4,2 C 10,5 C
06.05.2012 10:11 10,5 C 65 % 1012,6 hPa 0,0 l/m 0,0 km/h (0 Bft) O 90 4,2 C 10,5 C
06.05.2012 10:16 10,8 C 65 % 1012,7 hPa 0,0 l/m 6,5 km/h (2 Bft) O-SO 112 4,5 C 10,8 C
06.05.2012 10:21 11,1 C 65 % 1012,7 hPa 0,0 l/m 3,2 km/h (1 Bft) O-SO 112 4,8 C 11,1 C
06.05.2012 10:26 11,3 C 64 % 1012,7 hPa 0,0 l/m 1,4 km/h (1 Bft) O-SO 112 4,7 C 11,3 C
06.05.2012 10:31 11,4 C 63 % 1012,6 hPa 0,0 l/m 6,8 km/h (2 Bft) O-SO 112 4,6 C 11,4 C
06.05.2012 10:36 11,3 C 63 % 1012,6 hPa 0,0 l/m 7,6 km/h (2 Bft) O-SO 112 4,5 C 11,3 C
06.05.2012 10:41 11,3 C 63 % 1012,7 hPa 0,0 l/m 3,2 km/h (1 Bft) S-SO 157 4,5 C 11,3 C
06.05.2012 10:46 11,4 C 63 % 1012,9 hPa 0,0 l/m 5,4 km/h (1 Bft) SO 135 4,6 C 11,4 C
06.05.2012 10:51 11,5 C 63 % 1012,8 hPa 0,0 l/m 4,0 km/h (1 Bft) O-SO 112 4,7 C 11,5 C
06.05.2012 10:56 11,5 C 63 % 1012,7 hPa 0,0 l/m 4,3 km/h (1 Bft) O 90 4,7 C 11,5 C
06.05.2012 11:01 11,4 C 63 % 1012,8 hPa 0,0 l/m 2,9 km/h (1 Bft) O 90 4,6 C 11,4 C
06.05.2012 11:06 11,2 C 63 % 1012,9 hPa 0,0 l/m 5,0 km/h (1 Bft) W-SW 247 4,4 C 11,2 C
06.05.2012 11:11 11,3 C 63 % 1013,0 hPa 0,0 l/m 2,9 km/h (1 Bft) NO 45 4,5 C 11,3 C
06.05.2012 11:16 11,3 C 63 % 1012,8 hPa 0,0 l/m 1,8 km/h (1 Bft) O-SO 112 4,5 C 11,3 C
06.05.2012 11:21 11,3 C 62 % 1012,9 hPa 0,0 l/m 4,7 km/h (1 Bft) O-NO 67 4,3 C 11,3 C
06.05.2012 11:26 11,3 C 62 % 1013,0 hPa 0,0 l/m 2,9 km/h (1 Bft) S-SO 157 4,3 C 11,3 C
06.05.2012 11:31 11,4 C 63 % 1013,1 hPa 0,0 l/m 0,0 km/h (0 Bft) S-SO 157 4,6 C 11,4 C
06.05.2012 11:36 11,4 C 62 % 1013,1 hPa 0,0 l/m 5,0 km/h (1 Bft) SO 135 4,4 C 11,4 C
06.05.2012 11:41 11,4 C 63 % 1013,1 hPa 0,0 l/m 2,5 km/h (1 Bft) SO 135 4,6 C 11,4 C
06.05.2012 11:46 11,3 C 62 % 1013,2 hPa 0,0 l/m 0,0 km/h (0 Bft) O-SO 112 4,3 C 11,3 C
06.05.2012 11:51 11,3 C 63 % 1013,3 hPa 0,0 l/m 0,0 km/h (0 Bft) O-SO 112 4,5 C 11,3 C
06.05.2012 11:56 11,3 C 62 % 1013,3 hPa 0,0 l/m 2,9 km/h (1 Bft) SO 135 4,3 C 11,3 C
06.05.2012 12:01 11,3 C 62 % 1013,3 hPa 0,0 l/m 0,0 km/h (0 Bft) SO 135 4,3 C 11,3 C
06.05.2012 12:06 11,5 C 62 % 1013,4 hPa 0,0 l/m 1,8 km/h (1 Bft) S-SO 157 4,5 C 11,5 C
06.05.2012 12:11 11,6 C 62 % 1013,4 hPa 0,0 l/m 2,5 km/h (1 Bft) O-SO 112 4,6 C 11,6 C
06.05.2012 12:16 11,8 C 62 % 1013,3 hPa 0,0 l/m 5,0 km/h (1 Bft) SO 135 4,8 C 11,8 C
06.05.2012 12:21 11,8 C 61 % 1013,4 hPa 0,0 l/m 1,4 km/h (1 Bft) S-SO 157 4,5 C 11,8 C
06.05.2012 12:26 11,8 C 60 % 1013,3 hPa 0,0 l/m 5,8 km/h (2 Bft) O-SO 112 4,3 C 11,8 C
06.05.2012 12:31 11,8 C 60 % 1013,3 hPa 0,0 l/m 0,0 km/h (0 Bft) O 90 4,3 C 11,8 C
06.05.2012 12:36 11,9 C 60 % 1013,3 hPa 0,0 l/m 7,9 km/h (2 Bft) O-NO 67 4,4 C 11,9 C
06.05.2012 12:41 11,8 C 58 % 1013,1 hPa 0,0 l/m 2,2 km/h (1 Bft) O-NO 67 3,8 C 11,8 C
06.05.2012 12:46 11,6 C 59 % 1013,2 hPa 0,0 l/m 4,0 km/h (1 Bft) O-NO 67 3,9 C 11,6 C
06.05.2012 12:51 11,6 C 58 % 1013,2 hPa 0,0 l/m 4,7 km/h (1 Bft) O-SO 112 3,6 C 11,6 C
06.05.2012 12:56 11,6 C 59 % 1013,3 hPa 0,0 l/m 2,2 km/h (1 Bft) SO 135 3,9 C 11,6 C
06.05.2012 13:01 12,1 C 61 % 1013,3 hPa 0,0 l/m 4,7 km/h (1 Bft) O-SO 112 4,8 C 12,1 C
06.05.2012 13:06 12,4 C 59 % 1013,3 hPa 0,0 l/m 6,1 km/h (2 Bft) SO 135 4,6 C 12,4 C
06.05.2012 13:11 12,9 C 60 % 1013,4 hPa 0,0 l/m 2,9 km/h (1 Bft) S-SO 157 5,3 C 12,9 C
06.05.2012 13:16 13,3 C 56 % 1013,4 hPa 0,0 l/m 3,6 km/h (1 Bft) N-NO 22 4,7 C 13,3 C
06.05.2012 13:21 13,2 C 57 % 1013,5 hPa 0,0 l/m 4,0 km/h (1 Bft) S 180 4,9 C 13,2 C
06.05.2012 13:26 13,3 C 57 % 1013,6 hPa 0,0 l/m 3,2 km/h (1 Bft) SO 135 5,0 C 13,3 C
06.05.2012 13:31 13,3 C 57 % 1013,6 hPa 0,0 l/m 4,7 km/h (1 Bft) S-SO 157 5,0 C 13,3 C
06.05.2012 13:36 13,2 C 57 % 1013,5 hPa 0,0 l/m 6,1 km/h (2 Bft) S-SO 157 4,9 C 13,2 C
06.05.2012 13:41 13,2 C 58 % 1013,5 hPa 0,0 l/m 8,3 km/h (2 Bft) S-SO 157 5,1 C 13,2 C
06.05.2012 13:46 13,3 C 58 % 1013,5 hPa 0,0 l/m 4,0 km/h (1 Bft) O-SO 112 5,2 C 13,3 C
06.05.2012 13:51 13,1 C 57 % 1013,5 hPa 0,0 l/m 4,7 km/h (1 Bft) S 180 4,8 C 13,1 C
06.05.2012 13:56 13,1 C 57 % 1013,5 hPa 0,0 l/m 6,1 km/h (2 Bft) SO 135 4,8 C 13,1 C
06.05.2012 14:01 13,2 C 56 % 1013,5 hPa 0,0 l/m 0,0 km/h (0 Bft) S 180 4,6 C 13,2 C
06.05.2012 14:06 13,2 C 55 % 1013,7 hPa 0,0 l/m 3,6 km/h (1 Bft) O-NO 67 4,4 C 13,2 C
06.05.2012 14:11 13,0 C 53 % 1013,6 hPa 0,0 l/m 2,2 km/h (1 Bft) NO 45 3,6 C 13,0 C
06.05.2012 14:16 12,7 C 54 % 1013,6 hPa 0,0 l/m 0,0 km/h (0 Bft) O-NO 67 3,6 C 12,7 C
06.05.2012 14:21 12,6 C 54 % 1013,7 hPa 0,0 l/m 4,7 km/h (1 Bft) S-SO 157 3,5 C 12,6 C
06.05.2012 14:26 12,8 C 56 % 1013,7 hPa 0,0 l/m 5,0 km/h (1 Bft) O-NO 67 4,2 C 12,8 C
06.05.2012 14:31 13,1 C 55 % 1013,7 hPa 0,0 l/m 5,8 km/h (2 Bft) S 180 4,3 C 13,1 C
06.05.2012 14:36 13,6 C 54 % 1013,8 hPa 0,0 l/m 4,3 km/h (1 Bft) SO 135 4,5 C 13,6 C
06.05.2012 14:41 13,9 C 53 % 1013,9 hPa 0,0 l/m 2,2 km/h (1 Bft) SO 135 4,5 C 13,9 C
06.05.2012 14:46 13,8 C 52 % 1013,8 hPa 0,0 l/m 2,5 km/h (1 Bft) SO 135 4,1 C 13,8 C
06.05.2012 14:51 13,8 C 53 % 1013,7 hPa 0,0 l/m 3,2 km/h (1 Bft) NW 315 4,4 C 13,8 C
06.05.2012 14:56 13,7 C 53 % 1013,7 hPa 0,0 l/m 3,2 km/h (1 Bft) O-SO 112 4,3 C 13,7 C
06.05.2012 15:01 13,6 C 53 % 1013,8 hPa 0,0 l/m 4,3 km/h (1 Bft) SW 225 4,2 C 13,6 C
06.05.2012 15:06 13,5 C 53 % 1013,8 hPa 0,0 l/m 5,0 km/h (1 Bft) O-NO 67 4,1 C 13,5 C
06.05.2012 15:11 13,1 C 52 % 1013,7 hPa 0,0 l/m 2,2 km/h (1 Bft) O-SO 112 3,5 C 13,1 C
06.05.2012 15:16 12,7 C 54 % 1013,7 hPa 0,0 l/m 1,4 km/h (1 Bft) S-SO 157 3,6 C 12,7 C
06.05.2012 15:21 12,7 C 55 % 1013,8 hPa 0,0 l/m 0,0 km/h (0 Bft) SO 135 3,9 C 12,7 C
06.05.2012 15:26 12,7 C 55 % 1013,7 hPa 0,0 l/m 3,2 km/h (1 Bft) O 90 3,9 C 12,7 C
06.05.2012 15:31 12,5 C 55 % 1013,7 hPa 0,0 l/m 6,1 km/h (2 Bft) O-NO 67 3,7 C 12,5 C
06.05.2012 15:36 12,3 C 55 % 1013,7 hPa 0,0 l/m 2,2 km/h (1 Bft) O-NO 67 3,5 C 12,3 C
06.05.2012 15:41 12,1 C 56 % 1013,8 hPa 0,0 l/m 3,2 km/h (1 Bft) SO 135 3,6 C 12,1 C
06.05.2012 15:46 12,1 C 57 % 1013,7 hPa 0,0 l/m 3,6 km/h (1 Bft) NO 45 3,8 C 12,1 C
06.05.2012 15:51 12,1 C 57 % 1013,8 hPa 0,0 l/m 5,4 km/h (1 Bft) O-NO 67 3,8 C 12,1 C
06.05.2012 15:56 11,9 C 56 % 1013,8 hPa 0,0 l/m 0,0 km/h (0 Bft) O-NO 67 3,4 C 11,9 C
06.05.2012 16:01 11,9 C 57 % 1013,8 hPa 0,0 l/m 1,1 km/h (1 Bft) O-NO 67 3,7 C 11,9 C
06.05.2012 16:06 11,9 C 57 % 1013,8 hPa 0,0 l/m 2,2 km/h (1 Bft) O 90 3,7 C 11,9 C
06.05.2012 16:11 11,9 C 56 % 1013,7 hPa 0,0 l/m 5,8 km/h (2 Bft) O 90 3,4 C 11,9 C
06.05.2012 16:16 11,9 C 56 % 1013,8 hPa 0,0 l/m 2,5 km/h (1 Bft) O-NO 67 3,4 C 11,9 C
06.05.2012 16:21 11,9 C 57 % 1013,8 hPa 0,0 l/m 2,2 km/h (1 Bft) NO 45 3,7 C 11,9 C
06.05.2012 16:26 12,1 C 57 % 1013,8 hPa 0,0 l/m 4,3 km/h (1 Bft) NO 45 3,8 C 12,1 C
06.05.2012 16:31 11,9 C 56 % 1013,8 hPa 0,0 l/m 7,2 km/h (2 Bft) NO 45 3,4 C 11,9 C
06.05.2012 16:36 11,8 C 56 % 1013,8 hPa 0,0 l/m 3,6 km/h (1 Bft) N-NO 22 3,3 C 11,8 C
06.05.2012 16:41 11,6 C 57 % 1013,7 hPa 0,0 l/m 4,0 km/h (1 Bft) NO 45 3,4 C 11,6 C
06.05.2012 16:46 11,8 C 57 % 1013,8 hPa 0,0 l/m 2,2 km/h (1 Bft) NO 45 3,6 C 11,8 C
06.05.2012 16:51 11,9 C 58 % 1013,8 hPa 0,0 l/m 0,0 km/h (0 Bft) O-SO 112 3,9 C 11,9 C
06.05.2012 16:56 12,1 C 57 % 1013,8 hPa 0,0 l/m 4,3 km/h (1 Bft) O-NO 67 3,8 C 12,1 C
06.05.2012 17:01 12,1 C 57 % 1013,9 hPa 0,0 l/m 2,2 km/h (1 Bft) O-SO 112 3,8 C 12,1 C
06.05.2012 17:06 12,1 C 57 % 1013,8 hPa 0,0 l/m 3,2 km/h (1 Bft) O-NO 67 3,8 C 12,1 C
06.05.2012 17:11 11,9 C 58 % 1013,8 hPa 0,0 l/m 3,2 km/h (1 Bft) O-NO 67 3,9 C 11,9 C
06.05.2012 17:16 11,8 C 59 % 1013,8 hPa 0,0 l/m 3,2 km/h (1 Bft) O-NO 67 4,1 C 11,8 C
06.05.2012 17:21 11,7 C 60 % 1013,7 hPa 0,0 l/m 1,4 km/h (1 Bft) O-NO 67 4,2 C 11,7 C
06.05.2012 17:26 11,6 C 61 % 1013,6 hPa 0,0 l/m 2,2 km/h (1 Bft) SO 135 4,3 C 11,6 C
06.05.2012 17:31 11,6 C 62 % 1013,8 hPa 0,0 l/m 3,2 km/h (1 Bft) SO 135 4,6 C 11,6 C
06.05.2012 17:36 11,6 C 62 % 1013,8 hPa 0,0 l/m 0,0 km/h (0 Bft) SO 135 4,6 C 11,6 C
06.05.2012 17:41 11,6 C 63 % 1013,8 hPa 0,0 l/m 4,0 km/h (1 Bft) SO 135 4,8 C 11,6 C
06.05.2012 17:46 11,5 C 63 % 1013,9 hPa 0,0 l/m 6,1 km/h (2 Bft) SO 135 4,7 C 11,5 C
06.05.2012 17:51 11,5 C 63 % 1013,9 hPa 0,0 l/m 8,3 km/h (2 Bft) S-SO 157 4,7 C 11,5 C
06.05.2012 17:56 11,4 C 63 % 1013,9 hPa 0,0 l/m 1,4 km/h (1 Bft) S-SO 157 4,6 C 11,4 C
06.05.2012 18:01 11,3 C 63 % 1013,8 hPa 0,0 l/m 2,5 km/h (1 Bft) O-NO 67 4,5 C 11,3 C
06.05.2012 18:06 11,3 C 63 % 1013,8 hPa 0,0 l/m 0,0 km/h (0 Bft) SO 135 4,5 C 11,3 C
06.05.2012 18:11 11,3 C 63 % 1013,8 hPa 0,0 l/m 2,5 km/h (1 Bft) SO 135 4,5 C 11,3 C
06.05.2012 18:16 11,2 C 63 % 1013,8 hPa 0,0 l/m 0,0 km/h (0 Bft) SO 135 4,4 C 11,2 C
06.05.2012 18:21 11,2 C 63 % 1013,9 hPa 0,0 l/m 1,1 km/h (1 Bft) S-SO 157 4,4 C 11,2 C
06.05.2012 18:26 11,2 C 63 % 1013,8 hPa 0,0 l/m 0,0 km/h (0 Bft) SO 135 4,4 C 11,2 C
06.05.2012 18:31 11,3 C 64 % 1013,9 hPa 0,0 l/m 2,2 km/h (1 Bft) O-SO 112 4,7 C 11,3 C
06.05.2012 18:36 11,3 C 63 % 1014,0 hPa 0,0 l/m 2,2 km/h (1 Bft) O-NO 67 4,5 C 11,3 C
06.05.2012 18:41 11,3 C 63 % 1014,2 hPa 0,0 l/m 2,2 km/h (1 Bft) O 90 4,5 C 11,3 C
06.05.2012 18:46 11,2 C 63 % 1014,1 hPa 0,0 l/m 3,6 km/h (1 Bft) O-SO 112 4,4 C 11,2 C
06.05.2012 18:51 11,2 C 63 % 1013,9 hPa 0,0 l/m 2,9 km/h (1 Bft) O 90 4,4 C 11,2 C
06.05.2012 18:56 11,1 C 64 % 1014,1 hPa 0,0 l/m 1,8 km/h (1 Bft) O-SO 112 4,6 C 11,1 C
06.05.2012 19:01 11,1 C 64 % 1014,1 hPa 0,0 l/m 1,1 km/h (1 Bft) O 90 4,6 C 11,1 C
06.05.2012 19:06 11,1 C 65 % 1014,1 hPa 0,0 l/m 3,6 km/h (1 Bft) O-SO 112 4,8 C 11,1 C
06.05.2012 19:11 11,1 C 65 % 1014,2 hPa 0,0 l/m 0,0 km/h (0 Bft) O-SO 112 4,8 C 11,1 C
06.05.2012 19:16 11,1 C 65 % 1014,2 hPa 0,0 l/m 0,0 km/h (0 Bft) O 90 4,8 C 11,1 C
06.05.2012 19:21 11,1 C 65 % 1014,2 hPa 0,0 l/m 0,0 km/h (0 Bft) O 90 4,8 C 11,1 C
06.05.2012 19:26 11,1 C 65 % 1014,2 hPa 0,0 l/m 1,4 km/h (1 Bft) O-SO 112 4,8 C 11,1 C
06.05.2012 19:31 11,0 C 65 % 1014,1 hPa 0,0 l/m 0,0 km/h (0 Bft) O-SO 112 4,7 C 11,0 C
06.05.2012 19:36 11,0 C 65 % 1014,1 hPa 0,0 l/m 1,1 km/h (1 Bft) O-NO 67 4,7 C 11,0 C
06.05.2012 19:41 11,0 C 66 % 1014,3 hPa 0,0 l/m 0,0 km/h (0 Bft) SO 135 4,9 C 11,0 C
06.05.2012 19:46 11,0 C 66 % 1014,5 hPa 0,0 l/m 2,5 km/h (1 Bft) O-SO 112 4,9 C 11,0 C
06.05.2012 19:51 11,0 C 66 % 1014,5 hPa 0,0 l/m 0,0 km/h (0 Bft) O-SO 112 4,9 C 11,0 C
06.05.2012 19:56 11,0 C 66 % 1014,5 hPa 0,0 l/m 0,0 km/h (0 Bft) O 90 4,9 C 11,0 C
06.05.2012 20:01 10,9 C 66 % 1014,5 hPa 0,0 l/m 1,4 km/h (1 Bft) O-SO 112 4,8 C 10,9 C
06.05.2012 20:06 10,9 C 66 % 1014,5 hPa 0,0 l/m 2,2 km/h (1 Bft) O-NO 67 4,8 C 10,9 C
06.05.2012 20:11 10,9 C 66 % 1014,6 hPa 0,0 l/m 1,8 km/h (1 Bft) O-NO 67 4,8 C 10,9 C
06.05.2012 20:16 10,9 C 66 % 1014,6 hPa 0,0 l/m 1,4 km/h (1 Bft) O-NO 67 4,8 C 10,9 C
06.05.2012 20:21 10,9 C 67 % 1014,6 hPa 0,0 l/m 2,5 km/h (1 Bft) O-NO 67 5,0 C 10,9 C
06.05.2012 20:26 10,8 C 67 % 1014,5 hPa 0,0 l/m 1,4 km/h (1 Bft) O 90 4,9 C 10,8 C
06.05.2012 20:31 10,8 C 67 % 1014,6 hPa 0,0 l/m 0,0 km/h (0 Bft) O-NO 67 4,9 C 10,8 C
06.05.2012 20:36 10,7 C 67 % 1014,5 hPa 0,0 l/m 0,0 km/h (0 Bft) O-NO 67 4,8 C 10,7 C
06.05.2012 20:41 10,7 C 67 % 1014,6 hPa 0,0 l/m 0,0 km/h (0 Bft) O-NO 67 4,8 C 10,7 C
06.05.2012 20:46 10,7 C 67 % 1014,7 hPa 0,0 l/m 0,0 km/h (0 Bft) O-NO 67 4,8 C 10,7 C
06.05.2012 20:51 10,7 C 67 % 1014,7 hPa 0,0 l/m 0,0 km/h (0 Bft) O 90 4,8 C 10,7 C
06.05.2012 20:56 10,6 C 67 % 1014,8 hPa 0,0 l/m 0,0 km/h (0 Bft) O 90 4,7 C 10,6 C
06.05.2012 21:01 10,6 C 68 % 1014,8 hPa 0,0 l/m 0,0 km/h (0 Bft) O-NO 67 4,9 C 10,6 C
06.05.2012 21:06 10,6 C 68 % 1014,8 hPa 0,0 l/m 0,0 km/h (0 Bft) O-NO 67 4,9 C 10,6 C
06.05.2012 21:11 10,6 C 69 % 1014,8 hPa 0,0 l/m 0,0 km/h (0 Bft) O-NO 67 5,2 C 10,6 C
06.05.2012 21:16 10,5 C 69 % 1014,9 hPa 0,0 l/m 0,0 km/h (0 Bft) O-NO 67 5,1 C 10,5 C
06.05.2012 21:21 10,5 C 69 % 1014,9 hPa 0,0 l/m 0,0 km/h (0 Bft) O-NO 67 5,1 C 10,5 C
06.05.2012 21:26 10,5 C 70 % 1015,0 hPa 0,0 l/m 0,0 km/h (0 Bft) O-NO 67 5,3 C 10,5 C
06.05.2012 21:31 10,5 C 71 % 1015,0 hPa 0,0 l/m 0,0 km/h (0 Bft) O 90 5,5 C 10,5 C
06.05.2012 21:36 10,4 C 72 % 1015,1 hPa 0,0 l/m 2,2 km/h (1 Bft) O-SO 112 5,6 C 10,4 C
06.05.2012 21:41 10,4 C 72 % 1015,2 hPa 0,0 l/m 1,4 km/h (1 Bft) SO 135 5,6 C 10,4 C
06.05.2012 21:46 10,4 C 72 % 1015,0 hPa 0,0 l/m 0,0 km/h (0 Bft) S-SO 157 5,6 C 10,4 C
06.05.2012 21:51 10,5 C 72 % 1015,1 hPa 0,0 l/m 2,5 km/h (1 Bft) S-SO 157 5,7 C 10,5 C
06.05.2012 21:56 10,5 C 73 % 1015,3 hPa 0,0 l/m 3,6 km/h (1 Bft) S 180 5,9 C 10,5 C
06.05.2012 22:01 10,5 C 73 % 1015,3 hPa 0,0 l/m 4,7 km/h (1 Bft) S 180 5,9 C 10,5 C
06.05.2012 22:06 10,5 C 73 % 1015,5 hPa 0,5 l/m 1,1 km/h (1 Bft) S 180 5,9 C 10,5 C
06.05.2012 22:11 10,4 C 73 % 1015,4 hPa 0,0 l/m 2,2 km/h (1 Bft) S-SO 157 5,8 C 10,4 C
06.05.2012 22:16 10,4 C 74 % 1015,6 hPa 0,0 l/m 4,7 km/h (1 Bft) SO 135 6,0 C 10,4 C
06.05.2012 22:21 10,3 C 74 % 1015,6 hPa 0,0 l/m 3,6 km/h (1 Bft) S 180 5,9 C 10,3 C
06.05.2012 22:26 10,3 C 74 % 1015,6 hPa 0,0 l/m 4,7 km/h (1 Bft) W-SW 247 5,9 C 10,3 C
06.05.2012 22:31 10,2 C 74 % 1015,7 hPa 0,0 l/m 4,0 km/h (1 Bft) S-SW 202 5,8 C 10,2 C
06.05.2012 22:36 10,2 C 75 % 1015,6 hPa 0,0 l/m 2,2 km/h (1 Bft) SW 225 6,0 C 10,2 C
06.05.2012 22:41 10,2 C 75 % 1015,7 hPa 0,0 l/m 4,3 km/h (1 Bft) SW 225 6,0 C 10,2 C
06.05.2012 22:46 10,1 C 75 % 1015,7 hPa 0,5 l/m 2,2 km/h (1 Bft) SW 225 5,9 C 10,1 C
06.05.2012 22:51 10,1 C 76 % 1015,7 hPa 0,0 l/m 4,7 km/h (1 Bft) SW 225 6,1 C 10,1 C
06.05.2012 22:56 10,1 C 76 % 1015,8 hPa 0,0 l/m 3,2 km/h (1 Bft) S-SW 202 6,1 C 10,1 C
06.05.2012 23:01 10,1 C 76 % 1015,9 hPa 0,0 l/m 2,2 km/h (1 Bft) S-SW 202 6,1 C 10,1 C
06.05.2012 23:06 9,9 C 76 % 1016,0 hPa 0,0 l/m 0,0 km/h (0 Bft) W 270 5,9 C 9,9 C
06.05.2012 23:11 9,9 C 77 % 1016,1 hPa 0,0 l/m 2,2 km/h (1 Bft) SW 225 6,1 C 9,9 C
06.05.2012 23:16 9,9 C 77 % 1015,9 hPa 0,5 l/m 2,5 km/h (1 Bft) S-SW 202 6,1 C 9,9 C
06.05.2012 23:21 9,8 C 77 % 1016,0 hPa 0,0 l/m 2,9 km/h (1 Bft) SW 225 6,0 C 9,8 C
06.05.2012 23:26 9,7 C 78 % 1016,1 hPa 0,0 l/m 3,6 km/h (1 Bft) SW 225 6,1 C 9,7 C
06.05.2012 23:31 9,7 C 78 % 1016,0 hPa 0,0 l/m 2,5 km/h (1 Bft) SW 225 6,1 C 9,7 C
06.05.2012 23:36 9,7 C 78 % 1016,0 hPa 0,0 l/m 1,1 km/h (1 Bft) S 180 6,1 C 9,7 C
06.05.2012 23:41 9,6 C 78 % 1016,0 hPa 0,0 l/m 0,0 km/h (0 Bft) S-SW 202 6,0 C 9,6 C
06.05.2012 23:46 9,6 C 78 % 1016,1 hPa 0,0 l/m 0,0 km/h (0 Bft) S-SW 202 6,0 C 9,6 C
06.05.2012 23:51 9,7 C 79 % 1016,3 hPa 0,0 l/m 1,4 km/h (1 Bft) W-SW 247 6,2 C 9,7 C
06.05.2012 23:56 9,8 C 79 % 1016,3 hPa 0,0 l/m 0,0 km/h (0 Bft) S-SW 202 6,3 C 9,8 C
_ Min-Zeit 05:16 14:46 00:16 - 00:06 - - 16:36 04:56
Minimum _ 6,7 C 52 % 1009,5 hPa - 0,0 km/h (0 Bft) - - 3,3 C 5,1 C
_ Max-Zeit 14:41 04:21 23:51 00:36 04:56 - - 23:56 14:41
Maximum _ 13,9 C 83 % 1016,3 hPa 0,5 l/m 9,4 km/h
O-NO (2 Bft)
- - 6,3 C 13,9 C
Durchschnitt _ 10,0 C 69 % 1012,7 hPa #2,6 l/m 2,4 km/h (1 Bft) O-NO - 4,4 C 10,0 C
(c) by David Heller